createdAt,value
2023-03-26T00:01:33.669Z,0.98
2023-03-26T00:04:01.649Z,1.12
2023-03-26T00:06:32.727Z,0.77
2023-03-26T00:08:59.737Z,0.40
2023-03-26T00:11:29.454Z,0.75
2023-03-26T00:13:57.826Z,1.20
2023-03-26T00:16:28.943Z,0.73
2023-03-26T00:18:57.706Z,1.62
2023-03-26T00:21:27.759Z,0.43
2023-03-26T00:24:00.946Z,0.47
2023-03-26T00:26:31.175Z,1.53
2023-03-26T00:29:00.255Z,3.40
2023-03-26T00:31:27.824Z,3.78
2023-03-26T00:33:55.879Z,0.57
2023-03-26T00:36:25.838Z,1.25
2023-03-26T00:38:54.070Z,0.55
2023-03-26T00:41:26.140Z,1.05
2023-03-26T00:43:56.864Z,0.45
2023-03-26T00:46:25.974Z,0.43
2023-03-26T00:48:53.383Z,0.50
2023-03-26T00:51:21.367Z,0.30
2023-03-26T00:53:50.525Z,3.37
2023-03-26T00:56:18.648Z,0.47
2023-03-26T00:58:47.508Z,0.50
2023-03-26T01:01:18.842Z,3.17
2023-03-26T01:04:04.721Z,0.95
2023-03-26T01:06:37.746Z,0.40
2023-03-26T01:09:14.610Z,2.55
2023-03-26T01:11:42.283Z,0.88
2023-03-26T01:14:13.379Z,4.30
2023-03-26T01:16:52.275Z,0.50
2023-03-26T01:19:38.008Z,2.25
2023-03-26T01:22:09.633Z,0.68
2023-03-26T01:24:38.258Z,2.28
2023-03-26T01:27:10.267Z,1.58
2023-03-26T01:29:44.131Z,0.57
2023-03-26T01:32:24.760Z,0.88
2023-03-26T01:35:17.380Z,0.55
2023-03-26T01:38:18.536Z,4.82
2023-03-26T01:41:04.814Z,0.25
2023-03-26T01:44:02.708Z,0.28
2023-03-26T01:46:36.222Z,2.20
2023-03-26T01:49:06.018Z,0.90
2023-03-26T01:51:36.060Z,1.25
2023-03-26T01:54:07.487Z,1.17
2023-03-26T01:57:01.059Z,1.35
2023-03-26T01:59:56.253Z,0.28
2023-03-26T02:02:59.217Z,0.73
2023-03-26T02:05:51.259Z,1.55
2023-03-26T02:08:24.285Z,0.65
2023-03-26T02:10:58.219Z,2.67
2023-03-26T02:13:26.357Z,0.90
2023-03-26T02:15:58.896Z,0.20
2023-03-26T02:18:38.989Z,0.22
2023-03-26T02:21:12.371Z,0.50
2023-03-26T02:23:46.731Z,0.40
2023-03-26T02:26:17.485Z,0.65
2023-03-26T02:28:46.846Z,0.52
2023-03-26T02:31:17.120Z,1.62
2023-03-26T02:33:47.476Z,0.50
2023-03-26T02:36:16.080Z,0.77
2023-03-26T02:38:43.481Z,0.55
2023-03-26T02:41:11.560Z,2.42
2023-03-26T02:43:39.933Z,0.43
2023-03-26T02:46:08.631Z,0.20
2023-03-26T02:48:37.868Z,0.13
2023-03-26T02:51:06.708Z,1.30
2023-03-26T02:53:34.541Z,0.85
2023-03-26T02:56:06.171Z,0.25
2023-03-26T02:58:35.738Z,1.10
2023-03-26T03:01:03.439Z,0.95
2023-03-26T03:03:31.516Z,0.50
2023-03-26T03:06:00.511Z,0.85
2023-03-26T03:08:29.286Z,1.02
2023-03-26T03:10:59.553Z,0.13
2023-03-26T03:13:30.276Z,10.63
2023-03-26T03:15:57.767Z,1.20
2023-03-26T03:18:25.660Z,1.23
2023-03-26T03:20:54.006Z,0.82
2023-03-26T03:23:21.391Z,0.75
2023-03-26T03:25:52.602Z,1.42
2023-03-26T03:28:20.557Z,3.80
2023-03-26T03:30:48.907Z,1.23
2023-03-26T03:33:16.471Z,1.25
2023-03-26T03:35:45.970Z,1.25
2023-03-26T03:38:13.361Z,0.70
2023-03-26T03:40:41.464Z,1.10
2023-03-26T03:43:09.443Z,0.60
2023-03-26T03:45:37.591Z,0.95
2023-03-26T03:48:06.690Z,0.88
2023-03-26T03:50:35.924Z,1.90
2023-03-26T03:53:05.731Z,0.60
2023-03-26T03:55:34.067Z,3.83
2023-03-26T03:58:01.741Z,0.73
2023-03-26T04:00:30.673Z,0.52
2023-03-26T04:02:58.834Z,0.50
2023-03-26T04:05:26.792Z,1.42
2023-03-26T04:07:53.921Z,1.80
2023-03-26T04:10:23.753Z,0.28
2023-03-26T04:12:53.153Z,0.85
2023-03-26T04:15:21.101Z,3.75
2023-03-26T04:17:48.694Z,1.62
2023-03-26T04:20:16.506Z,1.48
2023-03-26T04:22:44.215Z,1.62
2023-03-26T04:25:13.628Z,1.58
2023-03-26T04:27:44.013Z,1.65
2023-03-26T04:30:17.168Z,0.55
2023-03-26T04:32:46.006Z,1.70
2023-03-26T04:35:16.670Z,0.70
2023-03-26T04:37:46.071Z,0.43
2023-03-26T04:40:20.503Z,1.00
2023-03-26T04:42:48.146Z,0.40
2023-03-26T04:45:22.606Z,0.37
2023-03-26T04:47:52.731Z,2.35
2023-03-26T04:50:20.131Z,3.22
2023-03-26T04:52:47.350Z,0.37
2023-03-26T04:55:24.843Z,2.78
2023-03-26T04:58:00.182Z,1.17
2023-03-26T05:00:28.435Z,2.00
2023-03-26T05:02:59.464Z,0.82
2023-03-26T05:05:29.103Z,1.12
2023-03-26T05:07:57.759Z,1.05
2023-03-26T05:10:25.315Z,2.15
2023-03-26T05:12:52.948Z,1.95
2023-03-26T05:15:20.770Z,1.12
2023-03-26T05:17:49.873Z,2.20
2023-03-26T05:20:24.035Z,4.57
2023-03-26T05:22:52.050Z,2.85
2023-03-26T05:25:19.814Z,1.42
2023-03-26T05:27:47.297Z,1.75
2023-03-26T05:30:18.031Z,1.37
2023-03-26T05:32:48.822Z,0.65
2023-03-26T05:35:17.714Z,1.42
2023-03-26T05:37:46.483Z,3.67
2023-03-26T05:40:16.945Z,1.35
2023-03-26T05:42:45.611Z,4.72
2023-03-26T05:45:16.155Z,3.42
2023-03-26T05:47:43.561Z,2.10
2023-03-26T05:50:11.498Z,3.30
2023-03-26T05:52:39.702Z,5.90
2023-03-26T05:55:08.358Z,11.35
2023-03-26T05:57:42.586Z,13.85
2023-03-26T06:00:16.656Z,86.12
2023-03-26T06:02:44.213Z,23.58
2023-03-26T06:05:12.688Z,17.58
2023-03-26T06:07:43.998Z,12.50
2023-03-26T06:10:17.832Z,8.40
2023-03-26T06:12:46.141Z,4.43
2023-03-26T06:15:13.701Z,4.43
2023-03-26T06:17:41.123Z,5.78
2023-03-26T06:20:11.298Z,4.40
2023-03-26T06:22:38.965Z,3.15
2023-03-26T06:25:08.004Z,1.62
2023-03-26T06:27:36.245Z,0.82
2023-03-26T06:30:04.591Z,2.05
2023-03-26T06:32:32.421Z,3.62
2023-03-26T06:34:59.958Z,1.75
2023-03-26T06:37:27.344Z,1.85
2023-03-26T06:39:55.512Z,4.97
2023-03-26T06:42:22.878Z,5.30
2023-03-26T06:45:10.673Z,3.08
2023-03-26T06:47:44.341Z,3.42
2023-03-26T06:50:14.110Z,3.70
2023-03-26T06:52:41.343Z,4.65
2023-03-26T06:55:10.433Z,2.55
2023-03-26T06:57:39.344Z,4.12
2023-03-26T07:00:09.717Z,3.25
2023-03-26T07:02:41.789Z,2.65
2023-03-26T07:05:23.691Z,2.05
2023-03-26T07:07:58.321Z,2.78
2023-03-26T07:10:42.490Z,3.10
2023-03-26T07:13:10.042Z,3.20
2023-03-26T07:15:38.424Z,3.92
2023-03-26T07:18:06.115Z,1.10
2023-03-26T07:20:34.869Z,2.70
2023-03-26T07:23:02.379Z,3.80
2023-03-26T07:25:30.417Z,1.50
2023-03-26T07:28:07.999Z,3.75
2023-03-26T07:30:59.617Z,4.50
2023-03-26T07:33:53.881Z,2.08
2023-03-26T07:36:26.117Z,2.60
2023-03-26T07:39:08.816Z,2.75
2023-03-26T07:41:41.656Z,2.45
2023-03-26T07:44:12.526Z,1.90
2023-03-26T07:46:41.447Z,3.00
2023-03-26T07:49:12.719Z,3.03
2023-03-26T07:51:40.589Z,4.18
2023-03-26T07:54:10.697Z,2.22
2023-03-26T07:56:40.076Z,2.42
2023-03-26T07:59:13.694Z,3.08
2023-03-26T08:02:00.033Z,2.72
2023-03-26T08:04:33.273Z,4.43
2023-03-26T08:07:15.644Z,3.78
2023-03-26T08:10:19.001Z,1.27
2023-03-26T08:13:39.148Z,4.82
2023-03-26T08:16:23.192Z,1.77
2023-03-26T08:19:07.884Z,1.77
2023-03-26T08:21:38.090Z,4.45
2023-03-26T08:24:23.791Z,3.45
2023-03-26T08:26:55.203Z,2.03
2023-03-26T08:29:41.257Z,4.60
2023-03-26T08:32:17.758Z,3.90
2023-03-26T08:34:46.214Z,1.77
2023-03-26T08:37:13.930Z,5.47
2023-03-26T08:39:42.510Z,2.47
2023-03-26T08:42:30.171Z,3.37
2023-03-26T08:45:22.595Z,1.55
2023-03-26T08:48:14.496Z,4.10
2023-03-26T08:51:01.537Z,1.35
2023-03-26T08:54:00.526Z,5.75
2023-03-26T08:56:59.543Z,2.67
2023-03-26T08:59:44.957Z,1.30
2023-03-26T09:02:41.175Z,2.83
2023-03-26T09:05:40.684Z,1.10
2023-03-26T09:08:26.478Z,3.47
2023-03-26T09:11:19.100Z,1.17
2023-03-26T09:13:49.210Z,2.45
2023-03-26T09:16:53.695Z,1.90
2023-03-26T09:19:35.580Z,2.40
2023-03-26T09:22:28.550Z,2.75
2023-03-26T09:25:06.953Z,1.30
2023-03-26T09:27:39.352Z,1.95
2023-03-26T09:30:19.125Z,2.37
2023-03-26T09:33:14.746Z,2.55
2023-03-26T09:35:53.498Z,2.08
2023-03-26T09:38:29.713Z,2.92
2023-03-26T09:41:27.265Z,2.20
2023-03-26T09:44:28.051Z,6.18
2023-03-26T09:46:55.649Z,1.00
2023-03-26T09:49:42.930Z,0.55
2023-03-26T09:52:50.371Z,1.10
2023-03-26T09:55:23.318Z,2.12
2023-03-26T09:58:08.111Z,1.15
2023-03-26T10:01:05.879Z,1.48
2023-03-26T10:03:51.945Z,1.60
2023-03-26T10:06:58.003Z,1.73
2023-03-26T10:09:25.679Z,2.87
2023-03-26T10:12:01.946Z,5.30
2023-03-26T10:14:41.233Z,4.37
2023-03-26T10:17:25.673Z,0.88
2023-03-26T10:20:04.898Z,2.87
2023-03-26T10:22:32.054Z,2.55
2023-03-26T10:25:29.916Z,3.25
2023-03-26T10:28:05.891Z,2.12
2023-03-26T10:30:33.356Z,10.65
2023-03-26T10:33:25.004Z,3.37
2023-03-26T10:35:55.381Z,1.83
2023-03-26T10:38:53.288Z,2.17
2023-03-26T10:41:42.664Z,1.35
2023-03-26T10:44:12.861Z,0.95
2023-03-26T10:47:01.898Z,5.43
2023-03-26T10:50:06.584Z,1.25
2023-03-26T10:52:51.772Z,1.15
2023-03-26T10:55:26.338Z,1.33
2023-03-26T10:58:01.069Z,1.58
2023-03-26T11:00:30.050Z,2.97
2023-03-26T11:03:20.908Z,2.53
2023-03-26T11:05:57.777Z,3.55
2023-03-26T11:08:36.206Z,5.32
2023-03-26T11:11:24.184Z,5.85
2023-03-26T11:14:07.020Z,1.85
2023-03-26T11:16:49.546Z,2.00
2023-03-26T11:19:20.222Z,2.78
2023-03-26T11:22:11.428Z,1.75
2023-03-26T11:25:17.157Z,3.47
2023-03-26T11:28:09.422Z,5.20
2023-03-26T11:31:05.244Z,2.12
2023-03-26T11:33:37.246Z,2.92
2023-03-26T11:36:12.048Z,2.03
2023-03-26T11:38:43.681Z,0.90
2023-03-26T11:41:24.030Z,1.75
2023-03-26T11:43:58.972Z,1.23
2023-03-26T11:46:31.908Z,2.72
2023-03-26T11:49:06.729Z,0.70
2023-03-26T11:51:36.756Z,0.73
2023-03-26T11:54:07.886Z,0.50
2023-03-26T11:56:35.923Z,1.67
2023-03-26T11:59:20.559Z,0.85
2023-03-26T12:02:24.756Z,0.75
2023-03-26T12:05:02.800Z,0.80
2023-03-26T12:07:32.667Z,0.57
2023-03-26T12:10:18.578Z,1.42
2023-03-26T12:12:47.976Z,0.65
2023-03-26T12:15:20.858Z,1.25
2023-03-26T12:17:53.503Z,0.85
2023-03-26T12:20:27.112Z,0.47
2023-03-26T12:22:59.082Z,0.70
2023-03-26T12:25:33.763Z,1.27
2023-03-26T12:28:03.026Z,0.70
2023-03-26T12:30:34.494Z,1.83
2023-03-26T12:33:26.143Z,0.30
2023-03-26T12:35:57.891Z,0.43
2023-03-26T12:38:35.851Z,0.68
2023-03-26T12:43:53.486Z,1.92
2023-03-26T12:44:53.798Z,0.60
2023-03-26T12:47:57.980Z,0.43
2023-03-26T12:50:17.167Z,0.30
2023-03-26T12:52:54.005Z,0.50
2023-03-26T12:55:42.274Z,4.20
2023-03-26T12:58:19.850Z,8.88
2023-03-26T13:01:16.041Z,1.87
2023-03-26T13:04:03.399Z,0.70
2023-03-26T13:07:06.430Z,3.60
2023-03-26T13:09:55.971Z,0.80
2023-03-26T13:12:55.414Z,0.73
2023-03-26T13:15:28.872Z,1.02
2023-03-26T13:18:01.044Z,0.93
2023-03-26T13:20:43.275Z,4.05
2023-03-26T13:23:26.722Z,1.30
2023-03-26T13:26:00.145Z,0.80
2023-03-26T13:29:25.759Z,9.38
2023-03-26T13:32:14.692Z,3.10
2023-03-26T13:35:14.115Z,1.10
2023-03-26T13:37:50.944Z,1.15
2023-03-26T13:40:29.755Z,1.65
2023-03-26T13:43:34.445Z,0.60
2023-03-26T13:46:14.088Z,0.65
2023-03-26T13:48:59.792Z,0.50
2023-03-26T13:51:48.246Z,1.25
2023-03-26T13:54:29.797Z,0.65
2023-03-26T13:57:07.519Z,0.85
2023-03-26T13:59:53.898Z,0.52
2023-03-26T14:02:25.708Z,1.60
2023-03-26T14:05:02.085Z,0.62
2023-03-26T14:07:43.174Z,0.40
2023-03-26T14:10:16.771Z,1.45
2023-03-26T14:12:51.348Z,0.47
2023-03-26T14:15:21.632Z,1.33
2023-03-26T14:18:27.334Z,0.75
2023-03-26T14:21:17.121Z,2.22
2023-03-26T14:23:56.420Z,0.98
2023-03-26T14:26:29.924Z,0.85
2023-03-26T14:28:56.902Z,0.57
2023-03-26T14:31:44.594Z,6.05
2023-03-26T14:34:34.655Z,2.12
2023-03-26T14:37:18.516Z,0.35
2023-03-26T14:40:16.738Z,1.00
2023-03-26T14:42:58.901Z,3.45
2023-03-26T14:46:03.968Z,2.00
2023-03-26T14:48:37.293Z,0.25
2023-03-26T14:51:16.771Z,1.17
2023-03-26T14:53:49.615Z,0.60
2023-03-26T14:56:47.032Z,2.92
2023-03-26T14:59:56.229Z,1.50
2023-03-26T15:02:55.826Z,1.58
2023-03-26T15:05:48.046Z,0.40
2023-03-26T15:08:34.450Z,0.57
2023-03-26T15:11:26.894Z,1.77
2023-03-26T15:14:03.333Z,0.43
2023-03-26T15:16:49.271Z,0.30
2023-03-26T15:19:46.972Z,0.73
2023-03-26T15:22:13.942Z,0.68
2023-03-26T15:24:59.566Z,1.90
2023-03-26T15:27:29.652Z,2.72
2023-03-26T15:30:16.024Z,1.98
2023-03-26T15:32:49.436Z,4.22
2023-03-26T15:35:41.605Z,1.73
2023-03-26T15:38:42.838Z,3.83
2023-03-26T15:41:44.435Z,3.62
2023-03-26T15:44:33.022Z,3.42
2023-03-26T15:47:27.383Z,0.45
2023-03-26T15:50:11.730Z,1.35
2023-03-26T15:53:03.568Z,2.30
2023-03-26T15:55:43.781Z,2.75
2023-03-26T15:58:27.278Z,1.48
2023-03-26T16:01:06.234Z,1.80
2023-03-26T16:03:48.093Z,0.90
2023-03-26T16:06:21.865Z,4.90
2023-03-26T16:09:07.902Z,2.40
2023-03-26T16:11:50.394Z,1.17
2023-03-26T16:14:36.119Z,1.05
2023-03-26T16:17:06.489Z,4.12
2023-03-26T16:19:50.271Z,1.90
2023-03-26T16:22:35.720Z,1.45
2023-03-26T16:25:29.594Z,1.20
2023-03-26T16:28:34.044Z,4.57
2023-03-26T16:31:36.508Z,2.85
2023-03-26T16:34:09.003Z,6.68
2023-03-26T16:36:39.071Z,5.45
2023-03-26T16:39:06.212Z,15.63
2023-03-26T16:41:51.296Z,23.25
2023-03-26T16:44:43.537Z,21.42
2023-03-26T16:47:42.318Z,18.33
2023-03-26T16:50:16.191Z,9.48
2023-03-26T16:52:54.964Z,9.40
2023-03-26T16:55:37.536Z,6.90
2023-03-26T16:59:00.375Z,7.12
2023-03-26T17:01:52.374Z,7.18
2023-03-26T17:04:24.865Z,4.28
2023-03-26T17:07:01.562Z,6.40
2023-03-26T17:09:42.660Z,8.68
2023-03-26T17:12:47.327Z,4.18
2023-03-26T17:15:45.096Z,5.35
2023-03-26T17:18:27.570Z,4.22
2023-03-26T17:21:01.088Z,5.07
2023-03-26T17:23:49.470Z,5.00
2023-03-26T17:27:01.676Z,5.90
2023-03-26T17:29:45.143Z,7.03
2023-03-26T17:32:15.140Z,7.25
2023-03-26T17:34:55.446Z,9.45
2023-03-26T17:37:22.816Z,10.98
2023-03-26T17:39:50.033Z,18.48
2023-03-26T17:42:19.002Z,20.45
2023-03-26T17:44:49.907Z,13.32
2023-03-26T17:47:59.215Z,20.88
2023-03-26T17:50:32.434Z,15.48
2023-03-26T17:53:06.131Z,14.20
2023-03-26T17:55:38.278Z,16.87
2023-03-26T17:58:58.702Z,9.63
2023-03-26T18:01:41.480Z,15.55
2023-03-26T18:04:19.793Z,9.75
2023-03-26T18:07:01.983Z,12.40
2023-03-26T18:09:53.158Z,14.52
2023-03-26T18:12:46.688Z,12.23
2023-03-26T18:15:32.855Z,12.43
2023-03-26T18:18:07.684Z,14.48
2023-03-26T18:20:38.574Z,14.48
2023-03-26T18:23:22.165Z,13.02
2023-03-26T18:26:15.480Z,16.55
2023-03-26T18:28:54.733Z,14.18
2023-03-26T18:31:26.812Z,20.42
2023-03-26T18:34:06.688Z,17.10
2023-03-26T18:36:34.889Z,20.00
2023-03-26T18:39:04.277Z,24.52
2023-03-26T18:41:37.258Z,16.40
2023-03-26T18:44:07.988Z,22.90
2023-03-26T18:46:35.678Z,20.92
2023-03-26T18:49:03.912Z,16.40
2023-03-26T18:51:32.180Z,12.35
2023-03-26T18:54:03.874Z,17.90
2023-03-26T18:56:43.342Z,19.20
2023-03-26T18:59:33.875Z,9.88
2023-03-26T19:02:13.960Z,12.65
2023-03-26T19:04:46.679Z,12.40
2023-03-26T19:07:18.102Z,17.33
2023-03-26T19:09:45.426Z,17.87
2023-03-26T19:12:31.089Z,21.00
2023-03-26T19:15:09.944Z,26.02
2023-03-26T19:17:42.376Z,24.83
2023-03-26T19:20:19.444Z,21.08
2023-03-26T19:22:48.248Z,21.52
2023-03-26T19:25:55.458Z,16.62
2023-03-26T19:28:24.052Z,14.35
2023-03-26T19:30:57.964Z,14.95
2023-03-26T19:33:34.321Z,8.50
2023-03-26T19:36:24.155Z,10.02
2023-03-26T19:39:05.038Z,7.15
2023-03-26T19:41:36.494Z,5.90
2023-03-26T19:44:18.220Z,6.03
2023-03-26T19:46:53.666Z,13.18
2023-03-26T19:49:42.468Z,6.97
2023-03-26T19:52:15.125Z,6.53
2023-03-26T19:55:15.376Z,7.45
2023-03-26T19:57:43.168Z,7.90
2023-03-26T20:00:15.234Z,6.43
2023-03-26T20:02:46.226Z,6.95
2023-03-26T20:05:28.927Z,10.40
2023-03-26T20:07:59.659Z,5.80
2023-03-26T20:10:28.029Z,9.05
2023-03-26T20:12:55.092Z,9.32
2023-03-26T20:15:24.715Z,9.05
2023-03-26T20:17:55.521Z,12.25
2023-03-26T20:20:24.766Z,9.68
2023-03-26T20:22:53.919Z,9.93
2023-03-26T20:25:26.781Z,9.18
2023-03-26T20:27:56.642Z,12.20
2023-03-26T20:30:37.042Z,10.73
2023-03-26T20:33:12.365Z,9.30
2023-03-26T20:35:40.886Z,7.85
2023-03-26T20:38:09.713Z,10.60
2023-03-26T20:40:38.556Z,6.28
2023-03-26T20:43:11.741Z,7.28
2023-03-26T20:45:39.538Z,10.20
2023-03-26T20:48:08.510Z,8.55
2023-03-26T20:50:41.565Z,10.18
2023-03-26T20:53:20.356Z,7.47
2023-03-26T20:55:49.252Z,6.62
2023-03-26T20:58:32.056Z,4.37
2023-03-26T21:01:01.500Z,5.00
2023-03-26T21:03:29.027Z,6.60
2023-03-26T21:06:01.366Z,4.82
2023-03-26T21:08:34.859Z,6.53
2023-03-26T21:11:04.788Z,4.20
2023-03-26T21:13:45.057Z,5.43
2023-03-26T21:16:13.311Z,7.60
2023-03-26T21:18:41.880Z,6.10
2023-03-26T21:22:01.664Z,6.05
2023-03-26T21:25:18.606Z,2.92
2023-03-26T21:28:06.140Z,3.12
2023-03-26T21:30:34.841Z,2.87
2023-03-26T21:33:02.342Z,6.35
2023-03-26T21:35:29.883Z,3.60
2023-03-26T21:37:57.768Z,3.65
2023-03-26T21:40:24.935Z,0.85
2023-03-26T21:42:54.275Z,2.00
2023-03-26T21:45:22.517Z,1.65
2023-03-26T21:47:50.311Z,1.37
2023-03-26T21:50:21.725Z,2.17
2023-03-26T21:52:51.362Z,6.12
2023-03-26T21:55:21.380Z,5.28
2023-03-26T21:58:12.552Z,1.27
2023-03-26T22:00:52.015Z,1.15
2023-03-26T22:03:29.414Z,2.95
2023-03-26T22:06:38.091Z,3.37
2023-03-26T22:09:05.762Z,1.73
2023-03-26T22:11:32.920Z,2.92
2023-03-26T22:14:01.565Z,3.83
2023-03-26T22:16:29.119Z,3.72
2023-03-26T22:18:56.505Z,6.28
2023-03-26T22:21:23.684Z,6.68
2023-03-26T22:23:54.697Z,2.30
2023-03-26T22:26:23.469Z,4.00
2023-03-26T22:28:51.103Z,6.18
2023-03-26T22:31:18.402Z,1.48
2023-03-26T22:33:46.070Z,10.43
2023-03-26T22:36:22.770Z,4.25
2023-03-26T22:38:54.249Z,4.50
2023-03-26T22:41:22.744Z,2.03
2023-03-26T22:43:52.148Z,3.75
2023-03-26T22:46:19.916Z,1.35
2023-03-26T22:48:51.144Z,3.15
2023-03-26T22:51:18.918Z,1.90
2023-03-26T22:53:46.086Z,3.78
2023-03-26T22:56:15.334Z,2.28
2023-03-26T22:58:42.401Z,1.20
2023-03-26T23:01:09.448Z,1.52
2023-03-26T23:03:37.271Z,3.47
2023-03-26T23:06:07.851Z,1.83
2023-03-26T23:08:36.294Z,2.90
2023-03-26T23:11:24.785Z,1.95
2023-03-26T23:13:52.070Z,3.25
2023-03-26T23:16:21.517Z,1.70
2023-03-26T23:18:48.939Z,2.47
2023-03-26T23:21:19.563Z,2.53
2023-03-26T23:23:48.192Z,3.20
2023-03-26T23:26:15.424Z,3.33
2023-03-26T23:28:43.275Z,2.45
2023-03-26T23:31:15.006Z,3.47
2023-03-26T23:33:51.412Z,2.10
2023-03-26T23:36:21.217Z,2.72
2023-03-26T23:38:48.920Z,4.60
2023-03-26T23:41:22.044Z,2.97
2023-03-26T23:43:54.596Z,2.93
2023-03-26T23:46:25.455Z,3.37
2023-03-26T23:48:53.445Z,2.10
2023-03-26T23:51:21.631Z,3.05
2023-03-26T23:53:49.444Z,2.22
2023-03-26T23:56:17.195Z,2.97
2023-03-26T23:58:44.562Z,2.92
